Time;durP1;ratioP1;P1;durP2;ratioP2;P2;SDS_P1;SDS_P2;PMS_P1;PMS_P2;Temp;Humidity;BMP_temperature;BMP_pressure;BME280_temperature;BME280_humidity;BME280_pressure;Samples;Min_cycle;Max_cycle;Signal;HPM_P1;HPM_P2
2021/08/21 00:02:01;;;;;;;6.35;4.03;;;26.70;49.00;;;;;;5015820;28;20053;-68
2021/08/21 00:04:27;;;;;;;7.15;4.22;;;26.70;49.10;;;;;;5003709;28;20044;-69
2021/08/21 00:06:53;;;;;;;7.68;4.57;;;26.70;49.30;;;;;;5011288;28;20495;-69
2021/08/21 00:09:19;;;;;;;5.18;3.85;;;26.70;49.30;;;;;;5008473;28;20088;-69
2021/08/21 00:11:44;;;;;;;5.30;4.32;;;26.70;49.40;;;;;;5005036;28;20063;-69
2021/08/21 00:14:10;;;;;;;4.57;3.75;;;26.70;49.40;;;;;;5009951;28;20026;-69
2021/08/21 00:16:36;;;;;;;8.05;4.35;;;26.70;49.60;;;;;;5018655;28;20037;-68
2021/08/21 00:19:02;;;;;;;5.28;4.25;;;26.60;49.60;;;;;;5028632;28;20463;-66
2021/08/21 00:21:28;;;;;;;8.05;4.45;;;26.60;50.00;;;;;;5021989;28;20045;-68
2021/08/21 00:23:54;;;;;;;5.90;4.00;;;26.50;50.10;;;;;;5009834;28;20088;-67
2021/08/21 00:26:19;;;;;;;11.95;4.13;;;26.40;50.20;;;;;;5006547;28;20077;-69
2021/08/21 00:28:45;;;;;;;7.18;4.22;;;26.50;50.00;;;;;;5014408;28;20076;-68
2021/08/21 00:31:10;;;;;;;6.30;3.97;;;26.50;50.00;;;;;;5001620;28;20129;-68
2021/08/21 00:33:36;;;;;;;5.90;4.15;;;26.50;50.60;;;;;;5023092;28;20037;-68
2021/08/21 00:36:02;;;;;;;4.30;3.50;;;26.40;50.30;;;;;;5022674;28;20033;-67
2021/08/21 00:38:28;;;;;;;8.07;4.10;;;26.40;50.40;;;;;;5030092;28;20030;-68
2021/08/21 00:40:53;;;;;;;5.68;4.60;;;26.50;50.50;;;;;;5024286;28;20052;-68
2021/08/21 00:43:20;;;;;;;7.75;3.47;;;26.50;50.30;;;;;;5031771;28;20124;-68
2021/08/21 00:45:46;;;;;;;5.53;3.92;;;26.50;50.40;;;;;;5011798;28;20399;-69
2021/08/21 00:48:11;;;;;;;7.32;4.35;;;26.50;50.50;;;;;;5025355;28;20050;-69
2021/08/21 00:50:37;;;;;;;7.70;4.63;;;26.60;50.50;;;;;;5027720;28;20041;-67
2021/08/21 00:53:03;;;;;;;5.93;3.58;;;26.50;50.50;;;;;;5003516;28;20037;-68
2021/08/21 00:55:28;;;;;;;5.70;4.03;;;26.50;50.70;;;;;;5016703;28;20049;-68
2021/08/21 00:57:54;;;;;;;5.75;3.90;;;26.50;50.50;;;;;;5022532;28;20036;-68
2021/08/21 01:00:20;;;;;;;9.80;4.10;;;26.50;50.40;;;;;;5007543;28;20049;-69
2021/08/21 01:02:46;;;;;;;7.20;4.18;;;26.50;50.40;;;;;;5003120;28;20041;-68
2021/08/21 01:05:16;;;;;;;8.73;3.97;;;26.50;50.40;;;;;;5007741;28;20045;-69
2021/08/21 01:07:43;;;;;;;5.82;3.67;;;26.40;50.70;;;;;;5018451;28;20412;-69
2021/08/21 01:10:17;;;;;;;5.00;3.88;;;26.30;50.90;;;;;;5009061;28;20125;-68
2021/08/21 01:12:45;;;;;;;6.72;4.28;;;26.30;51.50;;;;;;5003478;28;20041;-69
2021/08/21 01:15:11;;;;;;;6.55;4.07;;;26.30;51.00;;;;;;5022667;28;20037;-69
2021/08/21 01:17:37;;;;;;;7.63;4.28;;;26.30;50.90;;;;;;5005505;28;20434;-69
2021/08/21 01:20:04;;;;;;;9.77;4.60;;;26.20;51.30;;;;;;5008759;28;20054;-68
2021/08/21 01:22:29;;;;;;;5.70;4.22;;;26.30;51.30;;;;;;5002495;28;20479;-68
2021/08/21 01:24:56;;;;;;;8.93;4.43;;;26.30;51.00;;;;;;5008545;28;20045;-69
2021/08/21 01:27:24;;;;;;;4.70;3.92;;;26.20;51.20;;;;;;5009705;28;20034;-69
2021/08/21 01:29:50;;;;;;;6.72;3.80;;;26.20;51.30;;;;;;4999004;28;20386;-68
2021/08/21 01:32:17;;;;;;;7.25;4.88;;;26.10;51.20;;;;;;5006569;28;20034;-69
2021/08/21 01:34:42;;;;;;;5.22;4.30;;;26.20;51.20;;;;;;5001560;28;20160;-69
2021/08/21 01:37:09;;;;;;;7.97;4.07;;;26.20;51.10;;;;;;5007447;28;20117;-68
2021/08/21 01:39:34;;;;;;;6.43;3.85;;;26.00;51.20;;;;;;5004824;28;20058;-68
2021/08/21 01:42:01;;;;;;;5.95;4.28;;;26.20;51.30;;;;;;5002893;28;20096;-68
2021/08/21 01:44:26;;;;;;;5.68;4.13;;;26.20;51.20;;;;;;4999261;28;20117;-68
2021/08/21 01:46:52;;;;;;;4.75;3.72;;;26.20;51.20;;;;;;5008600;28;20133;-68
2021/08/21 01:49:23;;;;;;;8.23;3.88;;;26.20;51.30;;;;;;5003527;28;20411;-67
2021/08/21 01:51:50;;;;;;;4.88;3.88;;;26.10;52.00;;;;;;5003288;28;20045;-68
2021/08/21 01:54:20;;;;;;;8.73;4.30;;;26.20;51.80;;;;;;5002744;28;20412;-67
2021/08/21 01:56:51;;;;;;;6.55;4.22;;;26.20;51.80;;;;;;5005715;28;20037;-68
2021/08/21 01:59:29;;;;;;;4.80;3.92;;;26.10;51.90;;;;;;5011005;28;20125;-68
2021/08/21 02:01:55;;;;;;;5.65;3.92;;;26.10;52.50;;;;;;5017735;28;20479;-68
2021/08/21 02:04:22;;;;;;;6.15;3.92;;;26.00;52.00;;;;;;5004193;28;20065;-69
2021/08/21 02:06:48;;;;;;;7.63;3.42;;;26.00;52.10;;;;;;5009589;28;20037;-68
2021/08/21 02:09:16;;;;;;;7.18;3.47;;;26.00;52.20;;;;;;5023520;28;20033;-68
2021/08/21 02:11:43;;;;;;;4.18;3.75;;;26.00;52.30;;;;;;5022703;28;20073;-68
2021/08/21 02:14:08;;;;;;;3.80;3.40;;;26.00;52.40;;;;;;5014809;28;20443;-68
2021/08/21 02:16:35;;;;;;;6.25;4.22;;;25.90;52.30;;;;;;5017843;28;20049;-68
2021/08/21 02:19:00;;;;;;;8.65;3.88;;;25.90;52.30;;;;;;5009420;28;20041;-67
2021/08/21 02:21:26;;;;;;;6.70;3.63;;;25.90;52.20;;;;;;5002511;28;20048;-68
2021/08/21 02:23:54;;;;;;;4.00;3.55;;;25.80;52.20;;;;;;5012674;28;20049;-69
2021/08/21 02:26:20;;;;;;;4.40;3.40;;;25.80;52.40;;;;;;5004129;28;20547;-67
2021/08/21 02:28:46;;;;;;;5.32;3.70;;;25.90;52.30;;;;;;5018586;28;20133;-67
2021/08/21 02:31:11;;;;;;;6.55;4.07;;;25.80;52.50;;;;;;5021999;28;20037;-67
2021/08/21 02:33:38;;;;;;;8.20;4.13;;;25.70;52.50;;;;;;5027822;28;20151;-68
2021/08/21 02:36:04;;;;;;;5.55;3.70;;;25.80;52.80;;;;;;5022606;28;20033;-67
2021/08/21 02:38:30;;;;;;;6.25;3.83;;;25.80;52.60;;;;;;5027312;28;20418;-66
2021/08/21 02:40:55;;;;;;;5.30;3.60;;;25.80;53.10;;;;;;5022302;28;20091;-69
2021/08/21 02:43:21;;;;;;;5.72;4.00;;;25.80;52.50;;;;;;5027743;28;20049;-68
2021/08/21 02:45:48;;;;;;;6.10;3.50;;;25.90;52.30;;;;;;5008398;28;20034;-67
2021/08/21 02:48:14;;;;;;;4.00;3.60;;;25.80;52.40;;;;;;5007948;28;20116;-67
2021/08/21 02:50:40;;;;;;;6.60;4.15;;;25.70;52.60;;;;;;5008782;28;20117;-68
2021/08/21 02:53:05;;;;;;;4.30;3.53;;;25.80;52.50;;;;;;5026184;28;20136;-68
2021/08/21 02:55:31;;;;;;;4.68;3.47;;;25.80;52.40;;;;;;5021440;28;20130;-67
2021/08/21 02:57:56;;;;;;;5.05;3.72;;;25.90;52.30;;;;;;5019057;28;20030;-68
2021/08/21 03:00:22;;;;;;;4.53;4.13;;;25.80;52.50;;;;;;5026023;28;20064;-68
2021/08/21 03:02:49;;;;;;;4.32;3.83;;;25.70;52.30;;;;;;5022099;28;20065;-68
2021/08/21 03:05:14;;;;;;;5.10;3.92;;;25.80;52.50;;;;;;5026961;28;20041;-67
2021/08/21 03:07:40;;;;;;;5.57;3.78;;;25.80;52.30;;;;;;5004604;28;20483;-68
2021/08/21 03:10:07;;;;;;;4.72;3.90;;;25.80;52.40;;;;;;5030964;28;20113;-67
2021/08/21 03:12:33;;;;;;;4.63;3.45;;;25.80;52.50;;;;;;5027228;28;20045;-67
2021/08/21 03:14:59;;;;;;;5.72;3.75;;;25.80;52.60;;;;;;5025718;28;20077;-67
2021/08/21 03:17:25;;;;;;;5.88;3.70;;;25.80;52.80;;;;;;5021253;28;20045;-68
2021/08/21 03:19:51;;;;;;;6.28;3.92;;;25.70;53.00;;;;;;5012471;28;20132;-68
2021/08/21 03:22:17;;;;;;;8.23;3.97;;;25.60;53.10;;;;;;5021283;28;20143;-67
2021/08/21 03:24:42;;;;;;;4.90;3.40;;;25.60;53.10;;;;;;5027288;28;20087;-67
2021/08/21 03:27:08;;;;;;;5.70;4.10;;;25.60;53.20;;;;;;5022243;28;20049;-68
2021/08/21 03:29:34;;;;;;;5.93;3.70;;;25.70;53.60;;;;;;5025429;28;20551;-68
2021/08/21 03:32:00;;;;;;;7.43;3.75;;;25.60;53.60;;;;;;5016340;28;20120;-66
2021/08/21 03:34:25;;;;;;;5.00;4.20;;;25.60;53.80;;;;;;5004844;28;20040;-69
2021/08/21 03:36:52;;;;;;;7.00;3.97;;;25.60;53.80;;;;;;5015849;28;20061;-69
2021/08/21 03:39:17;;;;;;;6.63;3.85;;;25.50;53.80;;;;;;5021459;28;20038;-69
2021/08/21 03:41:43;;;;;;;6.50;3.78;;;25.60;53.70;;;;;;5030063;28;20044;-68
2021/08/21 03:44:09;;;;;;;5.10;4.20;;;25.50;53.90;;;;;;5002129;28;20034;-69
2021/08/21 03:46:34;;;;;;;4.70;3.50;;;25.50;54.10;;;;;;5029798;28;20468;-67
2021/08/21 03:49:00;;;;;;;5.43;3.88;;;25.50;53.80;;;;;;5025741;28;20037;-66
2021/08/21 03:51:26;;;;;;;4.63;3.40;;;25.50;53.90;;;;;;5031586;28;20041;-68
2021/08/21 03:53:51;;;;;;;5.70;3.53;;;25.50;53.90;;;;;;5025671;28;20037;-67
2021/08/21 03:56:17;;;;;;;5.22;3.25;;;25.50;53.80;;;;;;5010575;28;20482;-68
2021/08/21 03:58:42;;;;;;;4.72;3.42;;;25.50;53.70;;;;;;5012914;28;20053;-68
2021/08/21 04:01:08;;;;;;;5.15;3.97;;;25.40;53.80;;;;;;5025248;28;20050;-68
2021/08/21 04:03:35;;;;;;;8.73;4.07;;;25.50;53.90;;;;;;5018888;28;20029;-69
2021/08/21 04:06:01;;;;;;;6.05;3.67;;;25.40;53.50;;;;;;5028998;28;20068;-68
2021/08/21 04:08:26;;;;;;;5.13;3.92;;;25.40;53.70;;;;;;5026586;28;20437;-68
2021/08/21 04:10:52;;;;;;;5.07;3.63;;;25.40;53.60;;;;;;5023552;28;20034;-68
2021/08/21 04:13:17;;;;;;;5.03;4.10;;;25.40;54.10;;;;;;5023482;28;20052;-69
2021/08/21 04:15:43;;;;;;;3.97;3.58;;;25.20;54.30;;;;;;5023388;28;20069;-68
2021/08/21 04:18:08;;;;;;;6.95;3.75;;;25.20;54.40;;;;;;5028758;28;20040;-68
2021/08/21 04:20:34;;;;;;;3.55;3.20;;;25.30;55.00;;;;;;5022824;28;20037;-68
2021/08/21 04:23:00;;;;;;;5.47;3.75;;;25.30;54.20;;;;;;5028403;28;20980;-66
2021/08/21 04:25:25;;;;;;;7.20;3.78;;;25.30;53.90;;;;;;5024911;28;20042;-68
2021/08/21 04:27:52;;;;;;;3.90;3.50;;;25.30;53.80;;;;;;5028453;28;20083;-69
2021/08/21 04:30:18;;;;;;;4.07;3.65;;;25.30;54.00;;;;;;5008159;28;20041;-69
2021/08/21 04:32:44;;;;;;;4.60;3.65;;;25.30;53.70;;;;;;5029116;28;20042;-69
2021/08/21 04:35:09;;;;;;;6.25;3.78;;;25.30;53.70;;;;;;5023589;28;20440;-67
2021/08/21 04:37:36;;;;;;;4.43;3.58;;;25.30;53.80;;;;;;5028401;28;20399;-68
2021/08/21 04:40:03;;;;;;;4.03;3.35;;;25.30;53.70;;;;;;5022281;28;20049;-67
2021/08/21 04:42:28;;;;;;;6.18;3.88;;;25.20;54.10;;;;;;5028169;28;20503;-68
2021/08/21 04:44:59;;;;;;;4.63;3.80;;;25.30;54.20;;;;;;5026325;28;20087;-66
2021/08/21 04:47:28;;;;;;;6.75;4.28;;;25.30;54.10;;;;;;5023042;28;20074;-67
2021/08/21 04:49:55;;;;;;;4.82;3.90;;;25.30;53.90;;;;;;5026358;28;20050;-67
2021/08/21 04:52:21;;;;;;;4.78;2.95;;;25.20;53.80;;;;;;5020547;28;20569;-68
2021/08/21 04:54:48;;;;;;;6.13;3.72;;;25.30;53.50;;;;;;5024792;28;20517;-67
2021/08/21 04:57:13;;;;;;;7.13;4.05;;;25.30;53.10;;;;;;5019230;28;20095;-67
2021/08/21 04:59:39;;;;;;;3.60;3.20;;;25.40;53.10;;;;;;5028866;28;20132;-67
2021/08/21 05:02:04;;;;;;;4.60;3.65;;;25.40;52.90;;;;;;5025651;28;20041;-67
2021/08/21 05:04:30;;;;;;;4.57;4.07;;;25.40;52.70;;;;;;5023885;28;20045;-67
2021/08/21 05:06:55;;;;;;;5.60;3.45;;;25.50;52.70;;;;;;5012687;28;20083;-67
2021/08/21 05:09:21;;;;;;;4.40;3.90;;;25.50;52.40;;;;;;5028817;28;20033;-68
2021/08/21 05:11:47;;;;;;;4.68;3.85;;;25.70;52.50;;;;;;5028770;28;20463;-67
2021/08/21 05:14:12;;;;;;;5.90;3.55;;;25.60;52.50;;;;;;5026155;28;20033;-67
2021/08/21 05:16:42;;;;;;;7.47;3.80;;;25.70;53.00;;;;;;5026895;28;20052;-68
2021/08/21 05:19:12;;;;;;;5.25;3.60;;;25.70;52.90;;;;;;5009430;28;20137;-67
2021/08/21 05:21:47;;;;;;;5.03;3.67;;;25.70;53.10;;;;;;4999918;28;20452;-69
2021/08/21 05:24:13;;;;;;;4.20;3.17;;;25.70;53.00;;;;;;5007851;28;20049;-68
2021/08/21 05:26:39;;;;;;;14.82;4.25;;;25.70;53.10;;;;;;5009688;28;20511;-68
2021/08/21 05:29:05;;;;;;;3.97;3.40;;;25.70;53.40;;;;;;5018668;28;20037;-67
2021/08/21 05:31:30;;;;;;;4.88;3.40;;;25.70;53.00;;;;;;5027743;28;20049;-67
2021/08/21 05:33:56;;;;;;;4.75;3.40;;;25.70;53.20;;;;;;5023687;28;20111;-67
2021/08/21 05:36:22;;;;;;;5.15;3.63;;;25.60;53.10;;;;;;5028065;28;20037;-67
2021/08/21 05:38:47;;;;;;;4.10;3.45;;;25.70;53.10;;;;;;5022094;28;20074;-67
2021/08/21 05:41:13;;;;;;;8.48;3.88;;;25.70;52.80;;;;;;5028622;28;20135;-67
2021/08/21 05:43:39;;;;;;;5.60;3.47;;;25.70;52.50;;;;;;5023050;28;20041;-68
2021/08/21 05:46:04;;;;;;;4.13;3.10;;;25.70;52.10;;;;;;5028013;28;20036;-67
2021/08/21 05:48:30;;;;;;;5.57;3.38;;;25.70;52.30;;;;;;5025107;28;20037;-62
2021/08/21 05:50:55;;;;;;;6.05;3.60;;;25.70;52.10;;;;;;5030377;28;20021;-67
2021/08/21 05:53:21;;;;;;;6.00;3.90;;;25.80;52.30;;;;;;5012560;28;20044;-68
2021/08/21 05:55:46;;;;;;;7.45;3.50;;;25.80;52.00;;;;;;5013226;28;20124;-68
2021/08/21 05:58:12;;;;;;;4.40;3.30;;;25.90;52.00;;;;;;5003010;28;20053;-68
2021/08/21 06:00:37;;;;;;;4.40;3.10;;;25.80;52.40;;;;;;5012758;28;20104;-67
2021/08/21 06:03:03;;;;;;;5.45;3.33;;;25.90;52.20;;;;;;5017617;28;20034;-68
2021/08/21 06:05:29;;;;;;;3.50;3.20;;;25.90;52.10;;;;;;5021914;28;20030;-67
2021/08/21 06:07:54;;;;;;;6.38;4.10;;;26.00;52.20;;;;;;5024396;28;20114;-68
2021/08/21 06:10:20;;;;;;;6.13;4.05;;;26.00;51.90;;;;;;5015737;28;20045;-67
2021/08/21 06:12:47;;;;;;;8.63;4.13;;;26.00;52.10;;;;;;5027490;28;20605;-68
2021/08/21 06:15:13;;;;;;;5.78;3.55;;;25.90;51.90;;;;;;5023126;28;20431;-68
2021/08/21 06:17:39;;;;;;;4.35;3.95;;;26.10;52.20;;;;;;5027222;28;20038;-68
2021/08/21 06:20:05;;;;;;;4.68;3.60;;;26.30;51.70;;;;;;5026413;28;20038;-67
2021/08/21 06:22:31;;;;;;;4.82;4.13;;;26.30;51.30;;;;;;5013554;28;20037;-65
2021/08/21 06:24:56;;;;;;;3.67;3.38;;;26.30;51.00;;;;;;5021340;28;20406;-68
2021/08/21 06:27:22;;;;;;;9.88;4.60;;;26.50;50.60;;;;;;5011902;28;20407;-68
2021/08/21 06:29:48;;;;;;;6.18;3.85;;;26.50;50.80;;;;;;5019086;28;20042;-68
2021/08/21 06:32:13;;;;;;;7.90;4.13;;;26.50;50.90;;;;;;5004735;28;20030;-68
2021/08/21 06:34:39;;;;;;;7.45;3.88;;;26.60;51.10;;;;;;5002352;28;20054;-68
2021/08/21 06:37:08;;;;;;;6.88;3.55;;;26.60;50.40;;;;;;5005884;28;20124;-68
2021/08/21 06:39:34;;;;;;;6.38;3.60;;;26.80;50.40;;;;;;5004235;28;20045;-69
2021/08/21 06:42:01;;;;;;;7.50;4.30;;;26.80;50.30;;;;;;5008708;28;20073;-65
2021/08/21 06:44:27;;;;;;;6.40;4.13;;;26.90;50.50;;;;;;5015375;28;20045;-68
2021/08/21 06:46:53;;;;;;;5.35;4.25;;;26.90;50.30;;;;;;5002281;28;20469;-68
2021/08/21 06:49:19;;;;;;;5.97;3.80;;;26.90;50.30;;;;;;5013951;28;20151;-68
2021/08/21 06:51:44;;;;;;;5.60;3.72;;;26.90;50.30;;;;;;5008355;28;20139;-68
2021/08/21 06:54:10;;;;;;;6.82;3.60;;;27.00;50.20;;;;;;5024101;28;20040;-68
2021/08/21 06:56:35;;;;;;;5.45;3.60;;;27.00;50.10;;;;;;5015003;28;20045;-67
2021/08/21 06:59:01;;;;;;;6.45;4.25;;;26.90;50.30;;;;;;5020479;28;20504;-67
2021/08/21 07:01:29;;;;;;;7.05;4.70;;;26.80;50.00;;;;;;5024095;28;20048;-68
2021/08/21 07:03:54;;;;;;;6.13;3.95;;;26.80;50.20;;;;;;5025478;28;20077;-68
2021/08/21 07:06:20;;;;;;;6.13;3.90;;;26.80;50.40;;;;;;5017612;28;20053;-68
2021/08/21 07:08:45;;;;;;;5.78;3.78;;;26.70;50.30;;;;;;5028252;28;20045;-68
2021/08/21 07:11:11;;;;;;;4.72;3.92;;;26.90;49.60;;;;;;5025930;28;20033;-68
2021/08/21 07:13:37;;;;;;;4.30;3.90;;;26.80;49.50;;;;;;5029322;28;20568;-68
2021/08/21 07:16:02;;;;;;;4.70;3.83;;;26.80;48.50;;;;;;5022369;28;20041;-68
2021/08/21 07:18:28;;;;;;;4.25;3.25;;;26.90;48.90;;;;;;5032500;28;20090;-69
2021/08/21 07:20:54;;;;;;;4.47;3.30;;;27.00;48.90;;;;;;5029697;28;20092;-68
2021/08/21 07:23:20;;;;;;;5.18;4.03;;;27.20;48.70;;;;;;5016886;28;20057;-68
2021/08/21 07:25:46;;;;;;;6.57;3.92;;;27.10;48.30;;;;;;5030581;28;20029;-67
2021/08/21 07:28:11;;;;;;;5.25;3.85;;;27.10;48.20;;;;;;5000311;28;20061;-67
2021/08/21 07:30:37;;;;;;;8.13;3.88;;;27.20;47.70;;;;;;5018627;28;20537;-67
2021/08/21 07:33:03;;;;;;;3.65;3.35;;;27.30;46.90;;;;;;5011232;28;20034;-67
2021/08/21 07:35:28;;;;;;;5.10;3.90;;;27.40;47.40;;;;;;5027191;28;20037;-68
2021/08/21 07:37:54;;;;;;;5.28;3.45;;;27.50;46.80;;;;;;5009102;28;20131;-68
2021/08/21 07:40:20;;;;;;;3.80;3.47;;;27.60;46.10;;;;;;5030944;28;20061;-68
2021/08/21 07:42:45;;;;;;;5.28;3.80;;;27.60;45.90;;;;;;5019459;28;20066;-69
2021/08/21 07:45:12;;;;;;;5.80;3.72;;;27.60;45.70;;;;;;5007969;28;20074;-68
2021/08/21 07:47:37;;;;;;;5.43;3.90;;;27.60;45.50;;;;;;5023324;28;20391;-68
2021/08/21 07:50:03;;;;;;;5.35;3.65;;;27.70;45.30;;;;;;5030105;28;20047;-68
2021/08/21 07:52:29;;;;;;;3.83;3.40;;;27.80;45.20;;;;;;5026297;28;20538;-68
2021/08/21 07:54:56;;;;;;;4.20;3.60;;;27.70;43.60;;;;;;5029580;28;20041;-68
2021/08/21 07:57:21;;;;;;;3.70;3.40;;;27.80;44.10;;;;;;5012965;28;20088;-69
2021/08/21 07:59:47;;;;;;;3.50;3.20;;;27.80;43.20;;;;;;5026105;28;20054;-68
2021/08/21 08:02:13;;;;;;;3.85;3.30;;;27.90;44.00;;;;;;5030525;28;20044;-68
2021/08/21 08:04:38;;;;;;;5.78;3.50;;;27.90;44.00;;;;;;5013092;28;20491;-68
2021/08/21 08:07:04;;;;;;;4.40;3.30;;;27.80;43.90;;;;;;5028125;28;20502;-68
2021/08/21 08:09:30;;;;;;;4.20;3.30;;;28.10;42.90;;;;;;5024046;28;20073;-69
2021/08/21 08:11:55;;;;;;;4.93;3.30;;;28.10;41.80;;;;;;5013814;28;20045;-68
2021/08/21 08:14:21;;;;;;;5.30;3.50;;;28.00;41.90;;;;;;5013536;28;20076;-68
2021/08/21 08:16:47;;;;;;;4.35;3.50;;;28.00;41.60;;;;;;5030252;28;20042;-68
2021/08/21 08:19:13;;;;;;;5.43;3.60;;;28.10;42.60;;;;;;5005864;28;20040;-67
2021/08/21 08:21:39;;;;;;;6.15;3.55;;;28.20;42.30;;;;;;5029535;28;20051;-67
2021/08/21 08:24:04;;;;;;;7.18;3.72;;;28.10;42.70;;;;;;5004901;28;20377;-67
2021/08/21 08:26:30;;;;;;;4.82;3.67;;;28.10;43.10;;;;;;5030931;28;20037;-68
2021/08/21 08:28:56;;;;;;;6.38;4.03;;;28.20;43.30;;;;;;5020675;28;20594;-68
2021/08/21 08:31:21;;;;;;;5.35;4.10;;;28.00;45.30;;;;;;5030417;28;20033;-68
2021/08/21 08:33:47;;;;;;;8.13;3.60;;;28.10;46.20;;;;;;5031447;28;20399;-67
2021/08/21 08:36:12;;;;;;;5.32;3.97;;;28.20;45.40;;;;;;5023812;28;20086;-68
2021/08/21 08:38:38;;;;;;;6.53;3.55;;;28.10;45.70;;;;;;5022591;28;20038;-68
2021/08/21 08:41:11;;;;;;;6.03;3.85;;;28.30;45.00;;;;;;5009033;28;20056;-67
2021/08/21 08:43:37;;;;;;;4.47;3.38;;;28.50;44.90;;;;;;5010079;28;20079;-68
2021/08/21 08:46:03;;;;;;;7.32;3.72;;;28.80;43.50;;;;;;5018408;28;20073;-67
2021/08/21 08:48:33;;;;;;;5.15;3.75;;;29.00;42.60;;;;;;5021685;28;20045;-68
2021/08/21 08:51:00;;;;;;;6.93;3.58;;;28.90;43.00;;;;;;5005277;28;20121;-68
2021/08/21 08:53:25;;;;;;;4.40;3.17;;;29.10;42.70;;;;;;5005933;28;20054;-68
2021/08/21 08:55:51;;;;;;;5.55;3.85;;;29.30;42.00;;;;;;4998225;28;20064;-68
2021/08/21 08:58:16;;;;;;;4.70;3.47;;;29.50;41.30;;;;;;5026101;28;20060;-68
2021/08/21 09:00:42;;;;;;;4.38;3.97;;;29.70;40.50;;;;;;5022253;28;20373;-69
2021/08/21 09:03:19;;;;;;;5.72;3.50;;;29.70;39.50;;;;;;5022906;28;20037;-68
2021/08/21 09:05:45;;;;;;;4.00;3.60;;;29.60;40.00;;;;;;5023449;28;20036;-68
2021/08/21 09:08:26;;;;;;;5.95;3.92;;;29.80;39.90;;;;;;5028704;28;20041;-67
2021/08/21 09:10:54;;;;;;;4.20;3.78;;;29.90;39.50;;;;;;5023971;28;20052;-68
2021/08/21 09:13:20;;;;;;;6.03;4.10;;;29.60;39.40;;;;;;5028194;28;20116;-68
2021/08/21 09:15:48;;;;;;;4.60;3.70;;;29.70;39.70;;;;;;5023917;28;20034;-68
2021/08/21 09:18:17;;;;;;;5.20;4.25;;;30.00;39.30;;;;;;5022164;28;20072;-67
2021/08/21 09:20:49;;;;;;;6.75;3.92;;;30.20;38.70;;;;;;5028802;28;20045;-68
2021/08/21 09:23:27;;;;;;;6.35;4.15;;;30.20;38.10;;;;;;5028275;28;20049;-68
2021/08/21 09:26:03;;;;;;;4.53;4.05;;;30.20;38.20;;;;;;5022905;28;20124;-68
2021/08/21 09:28:28;;;;;;;6.68;3.97;;;30.00;38.70;;;;;;5026181;28;20103;-68
2021/08/21 09:31:03;;;;;;;5.28;3.90;;;30.20;38.10;;;;;;5009505;28;20425;-68
2021/08/21 09:33:29;;;;;;;5.60;3.95;;;30.20;39.70;;;;;;5009726;28;20038;-68
2021/08/21 09:35:55;;;;;;;9.27;3.90;;;30.10;39.70;;;;;;5004241;28;20494;-68
2021/08/21 09:38:31;;;;;;;6.47;3.80;;;29.90;40.70;;;;;;5019210;28;20502;-68
2021/08/21 09:41:05;;;;;;;6.07;4.57;;;29.90;40.80;;;;;;5026079;28;20495;-68
2021/08/21 09:43:33;;;;;;;5.72;4.57;;;29.90;40.80;;;;;;5024056;28;20379;-67
2021/08/21 09:46:31;;;;;;;7.43;4.40;;;29.50;41.50;;;;;;5007197;28;20391;-67
2021/08/21 09:49:10;;;;;;;5.75;4.38;;;29.50;42.30;;;;;;4924137;28;20061;-68
2021/08/21 09:51:42;;;;;;;6.90;3.72;;;29.40;41.70;;;;;;5025795;28;20565;-67
2021/08/21 09:54:14;;;;;;;5.82;4.30;;;29.30;41.70;;;;;;5022523;28;20044;-68
2021/08/21 09:56:44;;;;;;;6.20;4.30;;;29.30;42.10;;;;;;5024910;28;20037;-68
2021/08/21 09:59:10;;;;;;;6.97;3.92;;;29.30;42.60;;;;;;5019196;28;20844;-67
2021/08/21 10:01:36;;;;;;;7.13;5.15;;;29.50;42.20;;;;;;5012356;28;20137;-67
2021/08/21 10:04:04;;;;;;;5.03;4.47;;;29.50;42.20;;;;;;5022913;28;20041;-67
2021/08/21 10:06:30;;;;;;;6.95;3.88;;;29.50;42.10;;;;;;5027284;28;20108;-69
2021/08/21 10:09:07;;;;;;;6.65;4.68;;;29.60;41.90;;;;;;5017662;28;20484;-69
2021/08/21 10:11:33;;;;;;;5.15;4.40;;;29.70;41.90;;;;;;5013254;28;20042;-68
2021/08/21 10:14:00;;;;;;;6.75;4.32;;;29.60;41.70;;;;;;5003756;28;20124;-68
2021/08/21 10:16:26;;;;;;;7.88;4.75;;;29.40;42.00;;;;;;5015117;28;20095;-68
2021/08/21 10:18:53;;;;;;;6.75;5.22;;;29.50;41.70;;;;;;5023914;28;20049;-69
2021/08/21 10:21:19;;;;;;;6.18;4.32;;;29.50;41.50;;;;;;5025895;28;20072;-68
2021/08/21 10:23:47;;;;;;;7.93;4.82;;;29.60;41.90;;;;;;5018921;28;20044;-68
2021/08/21 10:26:30;;;;;;;4.72;3.85;;;29.60;41.90;;;;;;5029707;28;20046;-68
2021/08/21 10:28:58;;;;;;;5.20;4.67;;;29.80;41.30;;;;;;5007542;28;20037;-68
2021/08/21 10:31:52;;;;;;;5.13;4.00;;;29.90;41.20;;;;;;4987403;28;20045;-68
2021/08/21 10:34:18;;;;;;;5.65;4.07;;;29.90;41.10;;;;;;4942875;28;20037;-68
2021/08/21 10:36:58;;;;;;;5.93;4.00;;;30.10;40.30;;;;;;5027234;28;20041;-68
2021/08/21 10:39:38;;;;;;;7.47;3.83;;;30.10;39.70;;;;;;5007280;28;20198;-68
2021/08/21 10:42:34;;;;;;;5.68;3.78;;;30.30;39.10;;;;;;5007254;28;20140;-68
2021/08/21 10:45:00;;;;;;;5.72;3.85;;;30.40;38.50;;;;;;4983799;28;20030;-68
2021/08/21 10:47:33;;;;;;;5.22;3.70;;;30.60;38.70;;;;;;5013406;28;20045;-68
2021/08/21 10:49:59;;;;;;;4.30;3.90;;;30.60;38.20;;;;;;5022032;28;20087;-67
2021/08/21 10:52:59;;;;;;;4.30;3.83;;;30.60;38.30;;;;;;5026303;28;20063;-67
2021/08/21 10:55:36;;;;;;;6.32;4.43;;;30.70;37.60;;;;;;4970322;28;20046;-67
2021/08/21 10:58:16;;;;;;;8.13;4.32;;;30.80;38.40;;;;;;5024239;28;20409;-67
2021/08/21 11:00:43;;;;;;;4.43;3.67;;;30.90;37.70;;;;;;4994961;28;20042;-67
2021/08/21 11:03:11;;;;;;;6.32;4.28;;;31.00;37.80;;;;;;5027895;28;20054;-67
2021/08/21 11:05:53;;;;;;;7.68;4.38;;;30.90;38.30;;;;;;5021712;28;20550;-68
2021/08/21 11:08:20;;;;;;;4.80;4.25;;;31.20;37.90;;;;;;5027426;28;20044;-68
2021/08/21 11:10:46;;;;;;;4.53;4.10;;;31.20;38.20;;;;;;5021653;28;20039;-68
2021/08/21 11:13:53;;;;;;;7.22;3.97;;;31.30;37.70;;;;;;5019122;28;20039;-68
2021/08/21 11:16:52;;;;;;;7.07;4.50;;;31.20;36.70;;;;;;4962638;28;20128;-68
2021/08/21 11:19:38;;;;;;;6.20;4.32;;;31.70;36.10;;;;;;4973174;28;20042;-68
2021/08/21 11:22:24;;;;;;;6.60;4.20;;;31.70;35.30;;;;;;5012511;28;20041;-65
2021/08/21 11:24:53;;;;;;;8.10;3.92;;;31.80;34.60;;;;;;5011720;28;20064;-68
2021/08/21 11:27:33;;;;;;;5.97;3.97;;;32.00;35.00;;;;;;5010566;28;20037;-68
2021/08/21 11:30:08;;;;;;;7.22;3.85;;;32.20;33.90;;;;;;5014030;28;20037;-68
2021/08/21 11:32:57;;;;;;;4.85;3.90;;;32.20;33.40;;;;;;5021102;28;20029;-66
2021/08/21 11:35:36;;;;;;;6.30;4.55;;;32.20;32.60;;;;;;5000365;28;20049;-67
2021/08/21 11:38:06;;;;;;;8.90;4.35;;;32.50;32.50;;;;;;5020888;28;20099;-68
2021/08/21 11:40:39;;;;;;;5.63;4.15;;;32.90;32.00;;;;;;5015746;28;20530;-68
2021/08/21 11:43:08;;;;;;;6.50;4.28;;;35.10;28.80;;;;;;5021398;28;20029;-67
2021/08/21 11:45:34;;;;;;;5.90;4.00;;;35.80;26.70;;;;;;5026279;28;20691;-63
2021/08/21 11:48:00;;;;;;;5.43;3.53;;;35.70;24.80;;;;;;5019124;28;20168;-67
2021/08/21 11:50:35;;;;;;;5.68;3.90;;;37.70;24.40;;;;;;5013642;28;20156;-69
2021/08/21 11:53:04;;;;;;;4.35;3.72;;;38.90;22.80;;;;;;5022181;28;20044;-69
2021/08/21 11:55:31;;;;;;;9.02;4.82;;;38.40;22.20;;;;;;5034153;28;20034;-68
2021/08/21 11:57:57;;;;;;;5.82;4.00;;;37.80;22.00;;;;;;5029500;28;20125;-69
2021/08/21 12:00:29;;;;;;;5.22;4.00;;;38.10;22.40;;;;;;5027522;28;20132;-68
2021/08/21 12:03:02;;;;;;;4.50;4.10;;;38.30;21.10;;;;;;5025833;28;20408;-68
2021/08/21 12:05:36;;;;;;;6.35;3.92;;;39.00;20.60;;;;;;5022093;28;20042;-68
2021/08/21 12:08:21;;;;;;;5.55;4.20;;;40.30;19.30;;;;;;5026718;28;20136;-69
2021/08/21 12:10:48;;;;;;;4.30;3.88;;;42.00;17.40;;;;;;5000541;28;20056;-68
2021/08/21 12:13:16;;;;;;;3.95;3.63;;;41.90;17.30;;;;;;5022488;28;20046;-68
2021/08/21 12:15:42;;;;;;;4.53;4.13;;;43.20;16.50;;;;;;5009780;28;20026;-68
2021/08/21 12:18:08;;;;;;;4.45;4.05;;;43.70;16.20;;;;;;5016902;28;20064;-68
2021/08/21 12:20:38;;;;;;;5.70;4.40;;;44.40;15.50;;;;;;5005259;28;20133;-67
2021/08/21 12:23:07;;;;;;;5.38;4.63;;;44.30;14.80;;;;;;5009462;28;20082;-67
2021/08/21 12:28:54;;;;;;;4.90;4.50;;;44.10;14.50;;;;;;4951196;28;20052;-69
2021/08/21 12:31:19;;;;;;;5.85;4.55;;;43.70;16.10;;;;;;5026113;28;20120;-68
2021/08/21 12:33:56;;;;;;;5.20;4.32;;;43.20;15.90;;;;;;5008477;28;20079;-68
2021/08/21 12:36:23;;;;;;;4.72;4.32;;;43.00;15.10;;;;;;5030349;28;20385;-68
2021/08/21 12:39:06;;;;;;;5.25;4.75;;;43.80;16.10;;;;;;5014949;28;20451;-68
2021/08/21 12:41:47;;;;;;;6.25;4.68;;;42.80;15.50;;;;;;5006693;28;20104;-69
2021/08/21 12:44:14;;;;;;;5.55;5.15;;;41.90;16.40;;;;;;4984626;28;20141;-68
2021/08/21 12:47:03;;;;;;;5.72;5.07;;;42.30;16.20;;;;;;5018565;28;20116;-68
2021/08/21 12:49:40;;;;;;;5.85;5.30;;;42.20;15.40;;;;;;5012570;28;20042;-69
2021/08/21 12:52:07;;;;;;;7.95;5.05;;;43.30;17.40;;;;;;5020577;28;20037;-69
2021/08/21 12:54:35;;;;;;;6.30;5.70;;;45.40;14.20;;;;;;5022495;28;20392;-69
2021/08/21 12:57:03;;;;;;;6.28;5.82;;;44.40;13.60;;;;;;5008562;28;20041;-69